createdAt,value
2019-03-12T00:00:57.389Z,99.90
2019-03-12T00:03:27.214Z,99.90
2019-03-12T00:05:56.705Z,99.90
2019-03-12T00:08:26.118Z,99.90
2019-03-12T00:10:56.107Z,99.90
2019-03-12T00:13:25.747Z,99.90
2019-03-12T00:15:55.890Z,99.90
2019-03-12T00:18:28.210Z,99.90
2019-03-12T00:20:56.548Z,99.90
2019-03-12T00:23:26.349Z,99.90
2019-03-12T00:25:55.810Z,99.90
2019-03-12T00:28:25.226Z,99.90
2019-03-12T00:30:54.617Z,99.90
2019-03-12T00:33:24.307Z,99.90
2019-03-12T00:35:53.775Z,99.90
2019-03-12T00:38:23.381Z,99.90
2019-03-12T00:40:53.223Z,99.90
2019-03-12T00:43:22.779Z,99.90
2019-03-12T00:45:52.122Z,99.90
2019-03-12T00:48:21.453Z,99.90
2019-03-12T00:50:50.902Z,99.90
2019-03-12T00:53:20.352Z,99.90
2019-03-12T00:55:49.754Z,99.90
2019-03-12T00:58:19.201Z,99.90
2019-03-12T01:00:48.802Z,99.90
2019-03-12T01:03:18.255Z,99.90
2019-03-12T01:05:47.699Z,99.90
2019-03-12T01:08:18.257Z,99.90
2019-03-12T01:10:47.637Z,99.90
2019-03-12T01:13:17.929Z,99.90
2019-03-12T01:15:47.338Z,99.90
2019-03-12T01:18:16.716Z,99.90
2019-03-12T01:20:46.418Z,99.90
2019-03-12T01:23:15.955Z,99.90
2019-03-12T01:25:45.245Z,99.90
2019-03-12T01:28:15.042Z,99.90
2019-03-12T01:30:44.542Z,99.90
2019-03-12T01:33:14.501Z,99.90
2019-03-12T01:35:43.875Z,99.90
2019-03-12T01:38:13.468Z,99.90
2019-03-12T01:40:42.786Z,99.90
2019-03-12T01:43:12.131Z,99.90
2019-03-12T01:45:42.014Z,99.90
2019-03-12T01:48:11.475Z,99.90
2019-03-12T01:50:40.937Z,99.90
2019-03-12T01:53:11.546Z,99.90
2019-03-12T01:55:41.219Z,99.90
2019-03-12T01:58:10.898Z,99.90
2019-03-12T02:00:40.327Z,99.90
2019-03-12T02:03:10.076Z,99.90
2019-03-12T02:05:39.369Z,99.90
2019-03-12T02:08:08.831Z,99.90
2019-03-12T02:10:38.250Z,99.90
2019-03-12T02:13:07.630Z,99.90
2019-03-12T02:15:38.819Z,99.90
2019-03-12T02:18:08.363Z,99.90
2019-03-12T02:20:38.550Z,99.90
2019-03-12T02:23:08.067Z,99.90
2019-03-12T02:25:37.861Z,99.90
2019-03-12T02:28:19.580Z,99.90
2019-03-12T02:30:48.895Z,99.90
2019-03-12T02:33:18.314Z,99.90
2019-03-12T02:35:47.772Z,99.90
2019-03-12T02:38:17.638Z,99.90
2019-03-12T02:40:47.011Z,99.90
2019-03-12T02:43:16.329Z,99.90
2019-03-12T02:45:45.754Z,99.90
2019-03-12T02:48:15.182Z,99.90
2019-03-12T02:50:45.089Z,99.90
2019-03-12T02:53:14.467Z,99.90
2019-03-12T02:55:43.888Z,99.90
2019-03-12T02:58:13.658Z,99.90
2019-03-12T03:00:43.496Z,99.90
2019-03-12T03:03:12.898Z,99.90
2019-03-12T03:05:44.329Z,99.90
2019-03-12T03:08:14.346Z,99.90
2019-03-12T03:10:43.790Z,99.90
2019-03-12T03:13:13.231Z,99.90
2019-03-12T03:15:44.841Z,99.90
2019-03-12T03:18:14.722Z,99.90
2019-03-12T03:20:44.198Z,99.90
2019-03-12T03:23:13.971Z,99.90
2019-03-12T03:25:43.707Z,99.90
2019-03-12T03:28:13.066Z,99.90
2019-03-12T03:30:42.557Z,99.90
2019-03-12T03:33:12.000Z,99.90
2019-03-12T03:35:41.502Z,99.90
2019-03-12T03:38:10.921Z,99.90
2019-03-12T03:40:40.834Z,99.90
2019-03-12T03:43:10.331Z,99.90
2019-03-12T03:45:40.061Z,99.90
2019-03-12T03:48:09.518Z,99.90
2019-03-12T03:50:38.954Z,99.90
2019-03-12T03:53:08.462Z,99.90
2019-03-12T03:55:37.903Z,99.90
2019-03-12T03:58:07.272Z,99.90
2019-03-12T04:00:36.635Z,99.90
2019-03-12T04:03:06.253Z,99.90
2019-03-12T04:05:35.819Z,99.90
2019-03-12T04:08:05.204Z,99.90
2019-03-12T04:10:34.607Z,99.90
2019-03-12T04:13:03.928Z,99.90
2019-03-12T04:15:33.441Z,99.90
2019-03-12T04:18:02.827Z,99.90
2019-03-12T04:20:32.326Z,99.90
2019-03-12T04:23:02.298Z,99.90
2019-03-12T04:25:31.697Z,99.90
2019-03-12T04:28:01.676Z,99.90
2019-03-12T04:30:31.554Z,99.90
2019-03-12T04:33:01.195Z,99.90
2019-03-12T04:35:32.739Z,99.90
2019-03-12T04:38:02.275Z,99.90
2019-03-12T04:40:31.854Z,99.90
2019-03-12T04:43:01.482Z,99.90
2019-03-12T04:45:31.061Z,99.90
2019-03-12T04:48:00.728Z,99.90
2019-03-12T04:50:30.704Z,99.90
2019-03-12T04:53:00.155Z,99.90
2019-03-12T04:55:30.402Z,99.90
2019-03-12T04:57:59.723Z,99.90
2019-03-12T05:00:30.084Z,99.90
2019-03-12T05:02:59.711Z,99.90
2019-03-12T05:05:29.175Z,99.90
2019-03-12T05:07:58.763Z,99.90
2019-03-12T05:10:28.258Z,99.90
2019-03-12T05:12:57.745Z,99.90
2019-03-12T05:15:41.002Z,99.90
2019-03-12T05:18:09.472Z,99.90
2019-03-12T05:20:39.190Z,99.90
2019-03-12T05:23:09.206Z,99.90
2019-03-12T05:25:39.204Z,99.90
2019-03-12T05:28:10.381Z,99.90
2019-03-12T05:30:39.902Z,99.90
2019-03-12T05:33:09.596Z,99.90
2019-03-12T05:35:38.983Z,99.90
2019-03-12T05:38:08.531Z,99.90
2019-03-12T05:40:37.813Z,99.90
2019-03-12T05:43:07.069Z,99.90
2019-03-12T05:45:36.825Z,99.90
2019-03-12T05:48:06.074Z,99.90
2019-03-12T05:50:35.673Z,99.90
2019-03-12T05:53:14.097Z,99.90
2019-03-12T05:55:43.378Z,99.90
2019-03-12T05:58:12.968Z,99.90
2019-03-12T06:00:42.198Z,99.90
2019-03-12T06:03:11.637Z,99.90
2019-03-12T06:05:40.827Z,99.90
2019-03-12T06:08:09.997Z,99.90
2019-03-12T06:10:39.559Z,99.90
2019-03-12T06:13:08.776Z,99.90
2019-03-12T06:15:38.366Z,99.90
2019-03-12T06:18:07.861Z,99.90
2019-03-12T06:20:37.317Z,99.90
2019-03-12T06:23:06.613Z,99.90
2019-03-12T06:25:35.774Z,99.90
2019-03-12T06:28:04.937Z,99.90
2019-03-12T06:30:36.105Z,99.90
2019-03-12T06:33:13.157Z,99.90
2019-03-12T06:35:54.363Z,99.60
2019-03-12T06:38:31.389Z,99.40
2019-03-12T06:41:08.537Z,99.70
2019-03-12T06:43:45.408Z,99.70
2019-03-12T06:46:22.326Z,99.70
2019-03-12T06:48:59.044Z,99.50
2019-03-12T06:51:32.602Z,99.90
2019-03-12T06:54:03.446Z,99.70
2019-03-12T06:56:49.658Z,99.70
2019-03-12T06:59:30.105Z,99.30
2019-03-12T07:02:04.260Z,99.30
2019-03-12T07:04:51.636Z,99.60
2019-03-12T07:07:41.699Z,99.90
2019-03-12T07:10:24.145Z,99.40
2019-03-12T07:12:55.392Z,99.90
2019-03-12T07:15:38.202Z,98.70
2019-03-12T07:18:15.028Z,99.10
2019-03-12T07:20:46.123Z,98.90
2019-03-12T07:23:22.957Z,99.10
2019-03-12T07:26:05.802Z,99.00
2019-03-12T07:28:49.819Z,98.70
2019-03-12T07:31:12.151Z,98.50
2019-03-12T07:33:43.120Z,98.70
2019-03-12T07:36:26.003Z,98.70
2019-03-12T07:39:13.086Z,98.50
2019-03-12T07:42:00.479Z,98.30
2019-03-12T07:44:47.669Z,98.20
2019-03-12T07:47:36.227Z,97.90
2019-03-12T07:50:15.684Z,97.30
2019-03-12T07:53:03.490Z,97.40
2019-03-12T07:55:37.352Z,98.10
2019-03-12T07:58:11.158Z,97.50
2019-03-12T08:00:42.050Z,97.40
2019-03-12T08:03:21.642Z,97.20
2019-03-12T08:05:52.530Z,97.50
2019-03-12T08:08:38.487Z,96.70
2019-03-12T08:11:09.736Z,96.90
2019-03-12T08:13:52.769Z,96.40
2019-03-12T08:16:41.788Z,96.60
2019-03-12T08:19:18.288Z,96.50
2019-03-12T08:21:54.804Z,96.50
2019-03-12T08:24:28.421Z,97.30
2019-03-12T08:26:59.329Z,96.10
2019-03-12T08:29:30.225Z,95.30
2019-03-12T08:32:04.059Z,95.70
2019-03-12T08:34:41.140Z,95.50
2019-03-12T08:37:24.247Z,95.60
2019-03-12T08:39:58.412Z,95.60
2019-03-12T08:42:54.646Z,95.00
2019-03-12T08:45:34.282Z,94.90
2019-03-12T08:48:07.899Z,94.70
2019-03-12T08:50:44.511Z,94.50
2019-03-12T08:53:15.417Z,94.10
2019-03-12T08:55:58.695Z,93.60
2019-03-12T08:58:32.471Z,94.10
2019-03-12T09:01:06.158Z,93.20
2019-03-12T09:03:53.181Z,93.10
2019-03-12T09:06:36.141Z,92.80
2019-03-12T09:09:14.103Z,93.20
2019-03-12T09:11:45.022Z,92.70
2019-03-12T09:14:25.154Z,92.10
2019-03-12T09:17:12.655Z,91.80
2019-03-12T09:19:44.741Z,91.50
2019-03-12T09:22:18.853Z,91.40
2019-03-12T09:24:53.010Z,90.80
2019-03-12T09:27:39.179Z,90.40
2019-03-12T09:30:21.684Z,89.70
2019-03-12T09:32:56.432Z,90.20
2019-03-12T09:35:36.073Z,89.70
2019-03-12T09:38:12.967Z,90.00
2019-03-12T09:41:01.983Z,88.60
2019-03-12T09:43:50.880Z,87.60
2019-03-12T09:46:24.594Z,87.90
2019-03-12T09:49:12.147Z,88.00
2019-03-12T09:51:45.542Z,88.30
2019-03-12T09:54:16.427Z,87.00
2019-03-12T09:56:50.021Z,86.80
2019-03-12T09:59:39.521Z,87.70
2019-03-12T10:02:28.594Z,87.90
2019-03-12T10:04:59.497Z,89.00
2019-03-12T10:07:30.393Z,87.00
2019-03-12T10:10:07.032Z,85.40
2019-03-12T10:12:45.354Z,87.50
2019-03-12T10:15:34.796Z,86.60
2019-03-12T10:18:05.698Z,86.90
2019-03-12T10:20:52.715Z,87.20
2019-03-12T10:23:26.334Z,87.30
2019-03-12T10:26:13.742Z,85.00
2019-03-12T10:28:56.808Z,85.20
2019-03-12T10:31:39.786Z,85.30
2019-03-12T10:34:29.918Z,85.20
2019-03-12T10:37:13.955Z,84.80
2019-03-12T10:40:02.546Z,84.20
2019-03-12T10:42:37.365Z,85.70
2019-03-12T10:45:23.072Z,85.50
2019-03-12T10:47:59.813Z,85.80
2019-03-12T10:50:29.130Z,84.80
2019-03-12T10:52:58.486Z,84.70
2019-03-12T10:55:27.698Z,85.50
2019-03-12T10:57:56.927Z,84.10
2019-03-12T11:00:26.114Z,84.10
2019-03-12T11:02:55.386Z,84.80
2019-03-12T11:05:24.690Z,84.10
2019-03-12T11:07:53.952Z,85.10
2019-03-12T11:10:23.324Z,85.00
2019-03-12T11:12:52.547Z,84.50
2019-03-12T11:15:21.833Z,83.80
2019-03-12T11:17:51.098Z,84.10
2019-03-12T11:20:24.935Z,85.00
2019-03-12T11:22:54.538Z,84.30
2019-03-12T11:25:27.562Z,84.10
2019-03-12T11:27:54.817Z,83.90
2019-03-12T11:30:24.493Z,84.20
2019-03-12T11:32:54.108Z,84.40
2019-03-12T11:35:23.373Z,84.20
2019-03-12T11:37:53.618Z,83.20
2019-03-12T11:40:25.427Z,84.00
2019-03-12T11:42:55.020Z,85.20
2019-03-12T11:45:35.518Z,85.20
2019-03-12T11:47:55.325Z,85.90
2019-03-12T11:50:25.631Z,85.40
2019-03-12T11:52:58.888Z,86.30
2019-03-12T11:55:26.840Z,85.70
2019-03-12T11:57:56.073Z,85.50
2019-03-12T12:00:27.646Z,85.30
2019-03-12T12:03:00.267Z,86.00
2019-03-12T12:05:28.745Z,86.20
2019-03-12T12:07:58.398Z,88.50
2019-03-12T12:10:27.583Z,87.20
2019-03-12T12:12:57.052Z,87.50
2019-03-12T12:15:26.338Z,89.60
2019-03-12T12:17:55.579Z,89.10
2019-03-12T12:20:30.063Z,89.70
2019-03-12T12:22:56.443Z,90.00
2019-03-12T12:25:26.018Z,90.10
2019-03-12T12:27:55.256Z,90.10
2019-03-12T12:30:24.681Z,90.00
2019-03-12T12:32:54.051Z,88.80
2019-03-12T12:35:23.644Z,87.90
2019-03-12T12:37:53.255Z,87.80
2019-03-12T12:40:23.177Z,87.90
2019-03-12T12:42:52.474Z,88.70
2019-03-12T12:45:29.197Z,87.70
2019-03-12T12:47:58.896Z,87.60
2019-03-12T12:50:28.170Z,85.80
2019-03-12T12:52:57.415Z,85.50
2019-03-12T12:55:26.981Z,85.80
2019-03-12T12:57:56.583Z,84.10
2019-03-12T13:00:29.535Z,84.50
2019-03-12T13:02:59.167Z,84.60
2019-03-12T13:05:28.768Z,85.10
2019-03-12T13:07:58.043Z,85.50
2019-03-12T13:10:28.547Z,85.70
2019-03-12T13:12:57.809Z,84.40
2019-03-12T13:15:27.164Z,83.90
2019-03-12T13:17:56.438Z,84.80
2019-03-12T13:20:26.031Z,84.90
2019-03-12T13:22:55.634Z,85.30
2019-03-12T13:25:24.934Z,83.90
2019-03-12T13:27:54.213Z,82.90
2019-03-12T13:30:24.563Z,82.80
2019-03-12T13:32:54.169Z,83.50
2019-03-12T13:35:23.445Z,84.00
2019-03-12T13:37:52.707Z,83.30
2019-03-12T13:40:23.637Z,83.70
2019-03-12T13:42:52.949Z,83.70
2019-03-12T13:45:32.692Z,83.80
2019-03-12T13:48:02.958Z,83.70
2019-03-12T13:50:33.598Z,84.50
2019-03-12T13:53:02.860Z,84.90
2019-03-12T13:55:32.217Z,84.50
2019-03-12T13:58:01.581Z,83.90
2019-03-12T14:00:33.420Z,83.20
2019-03-12T14:03:01.806Z,83.90
2019-03-12T14:05:31.233Z,83.60
2019-03-12T14:08:00.537Z,84.50
2019-03-12T14:10:29.829Z,82.90
2019-03-12T14:12:59.152Z,82.50
2019-03-12T14:15:34.167Z,83.60
2019-03-12T14:18:03.449Z,82.70
2019-03-12T14:20:41.311Z,83.10
2019-03-12T14:23:16.773Z,82.80
2019-03-12T14:25:46.354Z,82.70
2019-03-12T14:28:16.876Z,82.70
2019-03-12T14:30:46.129Z,82.70
2019-03-12T14:33:16.490Z,82.90
2019-03-12T14:35:51.383Z,83.40
2019-03-12T14:38:17.038Z,83.40
2019-03-12T14:40:46.411Z,83.30
2019-03-12T14:43:15.675Z,81.50
2019-03-12T14:45:51.523Z,82.10
2019-03-12T14:48:44.358Z,81.70
2019-03-12T14:51:31.731Z,81.70
2019-03-12T14:54:03.419Z,81.70
2019-03-12T14:56:32.690Z,80.50
2019-03-12T14:59:01.951Z,81.00
2019-03-12T15:01:43.319Z,81.30
2019-03-12T15:04:18.794Z,81.40
2019-03-12T15:06:48.075Z,81.10
2019-03-12T15:09:17.410Z,81.40
2019-03-12T15:11:47.039Z,81.00
2019-03-12T15:14:31.407Z,80.30
2019-03-12T15:17:01.073Z,80.30
2019-03-12T15:19:30.340Z,79.50
2019-03-12T15:21:59.899Z,80.40
2019-03-12T15:24:29.301Z,80.00
2019-03-12T15:26:58.555Z,78.90
2019-03-12T15:29:28.206Z,78.50
2019-03-12T15:32:04.207Z,78.60
2019-03-12T15:34:28.346Z,77.80
2019-03-12T15:36:57.646Z,76.80
2019-03-12T15:39:27.294Z,76.40
2019-03-12T15:41:56.561Z,76.30
2019-03-12T15:44:25.822Z,76.30
2019-03-12T15:46:55.103Z,77.00
2019-03-12T15:49:24.425Z,76.40
2019-03-12T15:51:53.944Z,77.50
2019-03-12T15:54:23.217Z,76.80
2019-03-12T15:56:52.484Z,77.00
2019-03-12T15:59:21.748Z,76.30
2019-03-12T16:01:51.004Z,76.50
2019-03-12T16:04:20.283Z,76.40
2019-03-12T16:07:00.893Z,77.30
2019-03-12T16:09:20.710Z,76.20
2019-03-12T16:11:50.052Z,77.10
2019-03-12T16:14:19.358Z,79.00
2019-03-12T16:16:48.749Z,77.60
2019-03-12T16:19:18.451Z,78.80
2019-03-12T16:21:47.736Z,81.60
2019-03-12T16:24:17.015Z,78.10
2019-03-12T16:26:46.374Z,81.10
2019-03-12T16:29:15.835Z,82.00
2019-03-12T16:31:45.126Z,83.00
2019-03-12T16:34:14.927Z,84.80
2019-03-12T16:36:44.557Z,83.90
2019-03-12T16:39:13.897Z,80.80
2019-03-12T16:41:43.158Z,81.10
2019-03-12T16:44:13.511Z,78.40
2019-03-12T16:46:43.883Z,77.60
2019-03-12T16:49:13.185Z,79.10
2019-03-12T16:51:42.498Z,77.70
2019-03-12T16:54:12.185Z,77.30
2019-03-12T16:56:45.457Z,77.30
2019-03-12T16:59:13.409Z,76.50
2019-03-12T17:01:42.677Z,76.80
2019-03-12T17:04:12.015Z,75.80
2019-03-12T17:06:41.325Z,75.40
2019-03-12T17:09:10.564Z,74.60
2019-03-12T17:11:41.723Z,75.00
2019-03-12T17:14:11.056Z,74.10
2019-03-12T17:16:40.583Z,74.30
2019-03-12T17:19:09.846Z,75.20
2019-03-12T17:21:39.119Z,73.90
2019-03-12T17:24:08.798Z,74.50
2019-03-12T17:26:38.058Z,73.60
2019-03-12T17:29:07.346Z,73.40
2019-03-12T17:31:36.841Z,73.10
2019-03-12T17:34:06.179Z,73.50
2019-03-12T17:36:35.452Z,72.30
2019-03-12T17:39:06.171Z,73.70
2019-03-12T17:41:37.077Z,72.70
2019-03-12T17:44:06.396Z,73.00
2019-03-12T17:46:35.627Z,71.80
2019-03-12T17:49:04.967Z,71.50
2019-03-12T17:51:34.341Z,71.00
2019-03-12T17:54:03.684Z,70.20
2019-03-12T17:56:33.010Z,71.00
2019-03-12T17:59:02.252Z,71.80
2019-03-12T18:01:31.771Z,70.70
2019-03-12T18:04:10.548Z,70.20
2019-03-12T18:06:48.249Z,70.50
2019-03-12T18:09:25.976Z,70.50
2019-03-12T18:12:00.474Z,69.90
2019-03-12T18:15:02.197Z,70.40
2019-03-12T18:17:57.661Z,70.40
2019-03-12T18:20:33.984Z,70.70
2019-03-12T18:23:08.036Z,70.40
2019-03-12T18:25:47.904Z,70.30
2019-03-12T18:28:22.464Z,70.30
2019-03-12T18:31:22.550Z,69.40
2019-03-12T18:37:00.461Z,70.20
2019-03-12T18:39:42.357Z,69.30
2019-03-12T18:42:38.336Z,69.70
2019-03-12T18:45:12.552Z,69.50
2019-03-12T18:47:51.544Z,69.60
2019-03-12T18:50:27.992Z,70.70
2019-03-12T18:53:12.445Z,69.50
2019-03-12T18:55:53.449Z,69.00
2019-03-12T18:58:37.017Z,68.20
2019-03-12T19:01:23.215Z,68.50
2019-03-12T19:04:00.026Z,69.30
2019-03-12T19:06:44.628Z,69.10
2019-03-12T19:09:26.457Z,68.40
2019-03-12T19:12:01.974Z,68.50
2019-03-12T19:14:38.444Z,68.00
2019-03-12T19:17:16.463Z,68.00
2019-03-12T19:19:52.416Z,68.10
2019-03-12T19:22:38.201Z,66.90
2019-03-12T19:25:33.936Z,67.40
2019-03-12T19:28:09.576Z,67.60
2019-03-12T19:30:46.561Z,67.10
2019-03-12T19:33:35.146Z,68.50
2019-03-12T19:36:06.383Z,67.50
2019-03-12T19:38:56.309Z,67.20
2019-03-12T19:41:36.470Z,67.30
2019-03-12T19:44:22.505Z,66.70
2019-03-12T19:47:12.490Z,67.20
2019-03-12T19:49:56.248Z,67.10
2019-03-12T19:52:32.608Z,67.90
2019-03-12T19:55:09.484Z,68.70
2019-03-12T19:57:50.710Z,68.50
2019-03-12T20:00:29.578Z,68.60
2019-03-12T20:03:15.131Z,68.30
2019-03-12T20:06:05.266Z,68.10
2019-03-12T20:08:36.840Z,67.00
2019-03-12T20:11:34.749Z,67.90
2019-03-12T20:18:13.209Z,66.30
2019-03-12T20:24:43.945Z,65.80
2019-03-12T20:27:33.126Z,66.90
2019-03-12T20:30:42.686Z,65.00
2019-03-12T20:33:35.320Z,64.90
2019-03-12T20:36:40.804Z,64.00
2019-03-12T20:39:49.221Z,63.50
2019-03-12T20:42:43.674Z,63.80
2019-03-12T20:45:24.922Z,63.20
2019-03-12T20:48:28.807Z,62.80
2019-03-12T20:51:23.019Z,62.40
2019-03-12T20:54:03.141Z,61.90
2019-03-12T20:57:14.433Z,61.30
2019-03-12T21:00:13.088Z,61.90
2019-03-12T21:03:36.413Z,61.50
2019-03-12T21:06:35.318Z,61.10
2019-03-12T21:09:51.035Z,61.90
2019-03-12T21:13:04.303Z,61.00
2019-03-12T21:16:04.641Z,60.70
2019-03-12T21:19:14.147Z,60.40
2019-03-12T21:22:04.024Z,59.90
2019-03-12T21:31:16.934Z,62.10
2019-03-12T21:34:26.386Z,62.50
2019-03-12T21:37:05.322Z,63.00
2019-03-12T21:42:43.111Z,64.10
2019-03-12T21:45:30.793Z,63.90
2019-03-12T21:48:41.564Z,66.80
2019-03-12T21:51:03.972Z,71.90
2019-03-12T21:53:52.973Z,75.90
2019-03-12T21:56:30.117Z,73.30
2019-03-12T21:59:16.799Z,75.40
2019-03-12T22:02:05.570Z,77.00
2019-03-12T22:04:58.367Z,78.10
2019-03-12T22:07:55.725Z,77.20
2019-03-12T22:10:39.941Z,76.90
2019-03-12T22:13:14.189Z,77.50
2019-03-12T22:16:16.609Z,75.90
2019-03-12T22:18:50.234Z,76.00
2019-03-12T22:21:50.748Z,75.10
2019-03-12T22:24:35.264Z,72.20
2019-03-12T22:27:16.728Z,70.90
2019-03-12T22:30:26.967Z,70.00
2019-03-12T22:33:13.213Z,67.90
2019-03-12T22:36:00.585Z,68.90
2019-03-12T22:38:40.155Z,69.80
2019-03-12T22:41:12.427Z,69.60
2019-03-12T22:43:52.422Z,69.80
2019-03-12T22:46:46.541Z,70.00
2019-03-12T22:52:25.571Z,70.40
2019-03-12T22:55:10.509Z,71.10
2019-03-12T22:57:45.623Z,71.80
2019-03-12T23:00:56.242Z,71.70
2019-03-12T23:03:47.893Z,72.10
2019-03-12T23:06:41.580Z,72.60
2019-03-12T23:09:34.023Z,73.20
2019-03-12T23:12:06.581Z,74.20
2019-03-12T23:14:45.742Z,73.20
2019-03-12T23:17:21.944Z,73.60
2019-03-12T23:20:00.420Z,74.50
2019-03-12T23:22:39.140Z,74.90
2019-03-12T23:25:37.285Z,76.30
2019-03-12T23:28:09.202Z,77.00
2019-03-12T23:30:38.690Z,80.10
2019-03-12T23:33:13.596Z,81.80
2019-03-12T23:35:58.135Z,79.80
2019-03-12T23:38:21.702Z,80.30
2019-03-12T23:40:56.787Z,80.60
2019-03-12T23:43:27.784Z,80.40
2019-03-12T23:48:43.660Z,79.30
2019-03-12T23:51:23.867Z,79.60
2019-03-12T23:54:01.039Z,79.40
2019-03-12T23:56:30.896Z,79.40
2019-03-12T23:59:05.334Z,79.10
